Список аэропортов
Фактическая погода:

15 августа, 23:30
Температура: +20°C (+20.0*)
Ветер: перем. 1 м/с
Давление: *765 мм
Без существ. явл.
Время (МСК)Темп. СВетерВлажностьДавлениеОблачностьОсадки
21:00+22С, 3 м/с48%1019 гПас прояснениями
22:00+22С, 2 м/с51%1020 гПаоблачно
23:00+21С, 2 м/с53%1020 гПаоблачно
16 августа
00:00+21С, 2 м/с53%1020 гПаоблачно
01:00+21С, 1 м/с56%1020 гПаоблачно
02:00+20С, 1 м/с58%1020 гПаоблачно
03:00+20С, 1 м/с58%1020 гПаоблачно
04:00+20С, 1 м/с60%1020 гПаоблачно
05:00+20СЗ, 1 м/с61%1020 гПаоблачно
06:00+19С, 1 м/с63%1020 гПаоблачно
07:00+19С, 2 м/с64%1020 гПаоблачно
08:00+19СЗ, 2 м/с64%1020 гПаоблачно
09:00+19СЗ, 2 м/с62%1020 гПаоблачно
10:00+20С, 2 м/с59%1020 гПаоблачно
11:00+21СВ, 1 м/с54%1019 гПаоблачно
12:00+23В, 1 м/с49%1019 гПаоблачно
13:00+25В, 2 м/с38%1019 гПамалооблачно
14:00+26В, 3 м/с33%1018 гПамалооблачно
15:00+27В, 3 м/с32%1017 гПамалооблачно
16:00+27В, 3 м/с31%1017 гПамалооблачно
17:00+28ЮВ, 3 м/с30%1016 гПамалооблачно
18:00+28ЮВ, 3 м/с30%1015 гПамалооблачно
19:00+27ЮВ, 3 м/с31%1015 гПамалооблачно
20:00+26ЮВ, 3 м/с33%1015 гПамалооблачно
21:00+25ЮВ, 2 м/с35%1015 гПас прояснениями
22:00+23ЮВ, 2 м/с43%1015 гПамалооблачно
23:00+21ЮВ, 2 м/с48%1016 гПамалооблачно
17 августа
00:00+20ЮВ, 2 м/с52%1016 гПас прояснениями
01:00+20В, 4 м/с50%1016 гПаясно
02:00+20В, 3 м/с54%1016 гПамалооблачно
03:00+18ЮВ, 2 м/с62%1016 гПамалооблачно
04:00+16ЮЗ, 1 м/с73%1016 гПамалооблачно
05:00+15Штиль 78%1016 гПамалооблачно
06:00+14Штиль 83%1016 гПамалооблачно
07:00+13СВ, 1 м/с85%1016 гПамалооблачно
08:00+14Штиль 82%1016 гПаясно
09:00+17В, 1 м/с69%1016 гПамалооблачно
10:00+19СВ, 1 м/с60%1015 гПас прояснениями
11:00+21В, 1 м/с54%1015 гПас прояснениями
12:00+24В, 2 м/с47%1015 гПамалооблачно
13:00+26В, 2 м/с38%1014 гПаясно
14:00+27В, 2 м/с32%1014 гПаясно
15:00+28В, 1 м/с30%1014 гПаясно
16:00+28В, 1 м/с29%1013 гПаясно
17:00+29В, 1 м/с28%1012 гПас прояснениями
18:00+29СВ, 1 м/с27%1012 гПаясно
19:00+28СВ, 1 м/с27%1012 гПаоблачно
20:00+28СВ, 2 м/с28%1012 гПаясно
21:00+26СВ, 2 м/с32%1013 гПас прояснениями